Time;durP1;ratioP1;P1;durP2;ratioP2;P2;SDS_P1;SDS_P2;PMS_P1;PMS_P2;Temp;Humidity;BMP_temperature;BMP_pressure;BME280_temperature;BME280_humidity;BME280_pressure;Samples;Min_cycle;Max_cycle;Signal;HPM_P1;HPM_P2
2023/12/02 00:00:33;;;;;;;2.43;2.27;;;;;-0.10;94461.00;;;;5095160;28;20291;-64
2023/12/02 00:03:00;;;;;;;4.23;3.37;;;;;-0.10;94457.00;;;;5094790;28;20211;-64
2023/12/02 00:05:28;;;;;;;3.73;3.43;;;;;-0.20;94454.00;;;;5094967;28;20214;-64
2023/12/02 00:07:55;;;;;;;5.40;3.27;;;;;-0.20;94463.00;;;;5094759;28;20188;-64
2023/12/02 00:10:23;;;;;;;3.93;3.07;;;;;-0.20;94450.00;;;;5094984;28;20187;-64
2023/12/02 00:12:51;;;;;;;7.67;3.20;;;;;-0.20;94451.00;;;;5094513;28;20224;-64
2023/12/02 00:15:19;;;;;;;4.27;3.87;;;;;-0.20;94453.00;;;;5076413;28;20199;-64
2023/12/02 00:17:46;;;;;;;2.87;2.67;;;;;-0.20;94455.00;;;;5094904;28;20192;-64
2023/12/02 00:20:14;;;;;;;3.20;2.90;;;;;-0.30;94451.00;;;;5094469;28;20223;-65
2023/12/02 00:22:42;;;;;;;4.53;3.80;;;;;-0.30;94436.00;;;;5094472;28;20213;-64
2023/12/02 00:25:12;;;;;;;3.63;3.30;;;;;-0.30;94451.00;;;;5094084;28;20188;-64
2023/12/02 00:27:40;;;;;;;3.20;2.63;;;;;-0.30;94451.00;;;;5094947;28;20690;-64
2023/12/02 00:30:10;;;;;;;4.93;4.57;;;;;-0.30;94455.00;;;;5094576;28;20195;-64
2023/12/02 00:32:37;;;;;;;5.57;3.37;;;;;-0.30;94454.00;;;;5076340;28;20228;-64
2023/12/02 00:35:05;;;;;;;3.63;2.83;;;;;-0.20;94470.00;;;;5075975;28;20217;-64
2023/12/02 00:37:33;;;;;;;4.23;3.83;;;;;-0.30;94478.00;;;;5094495;28;20238;-64
2023/12/02 00:40:00;;;;;;;3.40;3.07;;;;;-0.40;94476.00;;;;5094455;28;20671;-64
2023/12/02 00:42:28;;;;;;;2.10;2.00;;;;;-0.40;94473.00;;;;5094397;28;20594;-64
2023/12/02 00:44:55;;;;;;;3.37;3.10;;;;;-0.30;94481.00;;;;5094322;28;20560;-64
2023/12/02 00:47:24;;;;;;;9.33;4.17;;;;;-0.40;94484.00;;;;5094416;28;20678;-64
2023/12/02 00:49:51;;;;;;;6.30;4.27;;;;;-0.50;94475.00;;;;5093974;28;20202;-64
2023/12/02 00:52:21;;;;;;;4.93;4.53;;;;;-0.40;94473.00;;;;5093867;28;20207;-64
2023/12/02 00:54:49;;;;;;;3.30;3.03;;;;;-0.50;94474.00;;;;5093885;28;20243;-63
2023/12/02 00:57:16;;;;;;;2.37;2.27;;;;;-0.40;94467.00;;;;5094163;28;20191;-64
2023/12/02 00:59:43;;;;;;;3.37;2.77;;;;;-0.40;94478.00;;;;5091446;22;20187;-58
2023/12/02 01:02:12;;;;;;;6.03;3.13;;;;;-0.40;94467.00;;;;5112700;28;20211;-58
2023/12/02 01:04:41;;;;;;;4.00;3.47;;;;;-0.40;94482.00;;;;5114774;28;20199;-59
2023/12/02 01:07:08;;;;;;;4.43;3.13;;;;;-0.40;94481.00;;;;5114356;28;20197;-58
2023/12/02 01:09:35;;;;;;;2.50;2.40;;;;;-0.40;94492.00;;;;5114090;28;20194;-58
2023/12/02 01:12:03;;;;;;;3.87;3.53;;;;;-0.50;94489.00;;;;5113962;28;20213;-59
2023/12/02 01:14:30;;;;;;;3.77;2.77;;;;;-0.50;94490.00;;;;5113936;28;20218;-58
2023/12/02 01:16:58;;;;;;;4.57;4.17;;;;;-0.50;94490.00;;;;5113896;28;20653;-59
2023/12/02 01:19:25;;;;;;;2.43;2.30;;;;;-0.50;94476.00;;;;5113969;28;20584;-58
2023/12/02 01:21:54;;;;;;;3.10;2.80;;;;;-0.40;94480.00;;;;5113793;28;20623;-58
2023/12/02 01:24:21;;;;;;;3.00;2.67;;;;;-0.60;94469.00;;;;5113814;28;20182;-59
2023/12/02 01:26:49;;;;;;;2.20;2.00;;;;;-0.60;94490.00;;;;5114327;28;20201;-58
2023/12/02 01:29:17;;;;;;;2.50;2.20;;;;;-0.50;94500.00;;;;5112396;28;20198;-63
2023/12/02 01:31:44;;;;;;;2.83;2.63;;;;;-0.60;94498.00;;;;5113553;28;20214;-59
2023/12/02 01:34:12;;;;;;;2.57;2.37;;;;;-0.50;94486.00;;;;5113654;28;20221;-59
2023/12/02 01:36:39;;;;;;;2.40;2.20;;;;;-0.50;94492.00;;;;5113404;28;20190;-58
2023/12/02 01:39:08;;;;;;;1.97;1.87;;;;;-0.50;94497.00;;;;5113744;28;20189;-58
2023/12/02 01:41:36;;;;;;;3.30;3.00;;;;;-0.50;94495.00;;;;5113581;28;20220;-58
2023/12/02 01:44:04;;;;;;;2.07;1.97;;;;;-0.40;94499.00;;;;5112525;28;20198;-57
2023/12/02 01:46:31;;;;;;;2.10;2.00;;;;;-0.40;94513.00;;;;5113851;28;20688;-58
2023/12/02 01:49:00;;;;;;;2.03;1.93;;;;;-0.40;94501.00;;;;5113665;28;20666;-58
2023/12/02 01:51:28;;;;;;;2.20;2.10;;;;;-0.40;94502.00;;;;5113584;28;20216;-58
2023/12/02 01:53:56;;;;;;;2.10;2.00;;;;;-0.50;94505.00;;;;5114256;28;20214;-58
2023/12/02 01:56:26;;;;;;;3.97;2.23;;;;;-0.50;94501.00;;;;5113471;28;20198;-58
2023/12/02 01:58:54;;;;;;;3.77;3.00;;;;;-0.50;94497.00;;;;5113703;28;20171;-58
2023/12/02 02:01:21;;;;;;;2.80;2.57;;;;;-0.50;94503.00;;;;5113243;28;20206;-58
2023/12/02 02:03:49;;;;;;;1.97;1.73;;;;;-0.50;94501.00;;;;5113490;28;20187;-59
2023/12/02 02:06:17;;;;;;;1.10;1.10;;;;;-0.40;94510.00;;;;5113623;28;20244;-59
2023/12/02 02:08:45;;;;;;;2.03;1.93;;;;;-0.40;94511.00;;;;5112165;28;20649;-58
2023/12/02 02:11:12;;;;;;;3.83;2.57;;;;;-0.50;94516.00;;;;5113188;28;20194;-59
2023/12/02 02:13:41;;;;;;;2.70;2.50;;;;;-0.50;94512.00;;;;5113230;28;20696;-58
2023/12/02 02:16:09;;;;;;;2.17;1.97;;;;;-0.60;94517.00;;;;5113564;28;20190;-59
2023/12/02 02:18:37;;;;;;;2.67;2.43;;;;;-0.50;94508.00;;;;5113221;28;20191;-58
2023/12/02 02:21:07;;;;;;;2.83;2.63;;;;;-0.50;94510.00;;;;5113179;28;20675;-59
2023/12/02 02:23:36;;;;;;;1.70;1.60;;;;;-0.40;94510.00;;;;5114277;28;20594;-59
2023/12/02 02:26:04;;;;;;;3.00;2.57;;;;;-0.40;94521.00;;;;5113343;28;20195;-58
2023/12/02 02:28:31;;;;;;;1.83;1.73;;;;;-0.40;94520.00;;;;5113278;28;20561;-58
2023/12/02 02:30:59;;;;;;;2.70;1.83;;;;;-0.50;94518.00;;;;5113565;28;20187;-58
2023/12/02 02:33:27;;;;;;;1.10;1.10;;;;;-0.50;94517.00;;;;5112960;28;20697;-58
2023/12/02 02:35:54;;;;;;;2.17;1.90;;;;;-0.50;94520.00;;;;5113086;28;20198;-58
2023/12/02 02:38:22;;;;;;;2.70;2.50;;;;;-0.60;94526.00;;;;5113090;28;20190;-59
2023/12/02 02:40:51;;;;;;;3.97;2.73;;;;;-0.60;94528.00;;;;5113071;28;20201;-58
2023/12/02 02:43:18;;;;;;;2.93;2.73;;;;;-0.60;94523.00;;;;5113011;28;20206;-58
2023/12/02 02:45:46;;;;;;;2.33;1.87;;;;;-0.60;94521.00;;;;5112962;28;20190;-58
2023/12/02 02:48:13;;;;;;;1.87;1.77;;;;;-0.70;94539.00;;;;5113637;28;20225;-58
2023/12/02 02:50:41;;;;;;;2.23;2.13;;;;;-0.70;94526.00;;;;5116993;28;20197;-59
2023/12/02 02:53:08;;;;;;;1.67;1.57;;;;;-0.60;94534.00;;;;5116666;28;20689;-58
2023/12/02 02:55:36;;;;;;;4.37;2.27;;;;;-0.60;94533.00;;;;5116525;28;20563;-59
2023/12/02 02:58:05;;;;;;;1.87;1.77;;;;;-0.50;94540.00;;;;5116425;28;20194;-58
2023/12/02 03:00:33;;;;;;;1.93;1.83;;;;;-0.80;94540.00;;;;5116426;28;20255;-59
2023/12/02 03:03:00;;;;;;;1.90;1.80;;;;;-0.70;94543.00;;;;5116514;27;20213;-58
2023/12/02 03:05:27;;;;;;;2.67;2.47;;;;;-0.80;94543.00;;;;5116451;28;20649;-58
2023/12/02 03:07:55;;;;;;;3.87;2.07;;;;;-0.80;94538.00;;;;5116434;28;20186;-58
2023/12/02 03:10:23;;;;;;;2.00;1.90;;;;;-0.70;94540.00;;;;5116525;28;20685;-58
2023/12/02 03:12:51;;;;;;;3.13;2.20;;;;;-0.80;94538.00;;;;5116291;28;20217;-58
2023/12/02 03:15:19;;;;;;;3.07;2.87;;;;;-0.80;94534.00;;;;5115143;28;20263;-58
2023/12/02 03:17:47;;;;;;;4.17;3.27;;;;;-0.80;94541.00;;;;5116264;28;20190;-58
2023/12/02 03:20:15;;;;;;;4.10;3.00;;;;;-0.80;94541.00;;;;5116192;28;20186;-58
2023/12/02 03:22:42;;;;;;;2.00;1.90;;;;;-0.80;94536.00;;;;5116116;28;20748;-57
2023/12/02 03:25:11;;;;;;;6.17;2.10;;;;;-0.70;94546.00;;;;5115881;28;20190;-57
2023/12/02 03:27:39;;;;;;;1.93;1.73;;;;;-0.70;94547.00;;;;5116129;28;20527;-57
2023/12/02 03:30:07;;;;;;;2.23;2.03;;;;;-0.70;94553.00;;;;5116047;28;20561;-57
2023/12/02 03:32:39;;;;;;;1.30;1.23;;;;;-0.80;94565.00;;;;5114806;28;20210;-56
2023/12/02 03:35:08;;;;;;;2.10;1.97;;;;;-0.90;94561.00;;;;5116533;28;20256;-57
2023/12/02 03:37:35;;;;;;;1.73;1.63;;;;;-0.80;94536.00;;;;5114355;28;20240;-57
2023/12/02 03:40:04;;;;;;;2.40;2.30;;;;;-0.80;94543.00;;;;5115904;28;20685;-58
2023/12/02 03:42:32;;;;;;;2.43;2.30;;;;;-0.90;94537.00;;;;5115826;28;20258;-57
2023/12/02 03:44:59;;;;;;;1.10;1.10;;;;;-0.90;94547.00;;;;5115768;28;20182;-57
2023/12/02 03:47:27;;;;;;;1.20;1.20;;;;;-0.80;94550.00;;;;5115664;28;20506;-62
2023/12/02 03:49:55;;;;;;;1.47;1.43;;;;;-0.90;94570.00;;;;5115512;28;20197;-57
2023/12/02 03:52:23;;;;;;;2.43;2.30;;;;;-0.80;94563.00;;;;5115418;28;20217;-57
2023/12/02 03:54:51;;;;;;;2.40;2.23;;;;;-1.00;94564.00;;;;5115246;28;20258;-57
2023/12/02 03:57:19;;;;;;;1.30;1.23;;;;;-1.00;94555.00;;;;5115519;28;20331;-57
2023/12/02 03:59:47;;;;;;;2.37;1.87;;;;;-0.90;94565.00;;;;5115345;28;20194;-57
2023/12/02 04:02:14;;;;;;;2.17;1.97;;;;;-0.90;94568.00;;;;5114752;28;20685;-58
2023/12/02 04:04:42;;;;;;;1.70;1.60;;;;;-0.90;94563.00;;;;5115292;27;20194;-57
2023/12/02 04:07:11;;;;;;;3.33;2.33;;;;;-0.90;94568.00;;;;5115416;27;20202;-58
2023/12/02 04:09:39;;;;;;;2.00;1.90;;;;;-1.00;94575.00;;;;5114031;28;20190;-57
2023/12/02 04:12:06;;;;;;;2.40;2.20;;;;;-0.90;94575.00;;;;5115017;28;20263;-57
2023/12/02 04:14:34;;;;;;;2.73;1.87;;;;;-1.00;94581.00;;;;5114986;28;20323;-57
2023/12/02 04:17:02;;;;;;;1.63;1.53;;;;;-1.00;94585.00;;;;5115282;28;20561;-57
2023/12/02 04:19:29;;;;;;;1.90;1.80;;;;;-1.10;94596.00;;;;5115173;28;20194;-59
2023/12/02 04:21:57;;;;;;;2.53;2.33;;;;;-1.10;94599.00;;;;5114834;28;20206;-57
2023/12/02 04:24:25;;;;;;;2.43;2.23;;;;;-1.10;94610.00;;;;5115159;28;20199;-57
2023/12/02 04:26:53;;;;;;;1.73;1.63;;;;;-1.00;94618.00;;;;5115117;28;20213;-59
2023/12/02 04:29:20;;;;;;;1.47;1.47;;;;;-1.00;94611.00;;;;5114786;28;20190;-57
2023/12/02 04:31:48;;;;;;;1.97;1.87;;;;;-1.00;94614.00;;;;5114775;28;20234;-56
2023/12/02 04:34:15;;;;;;;2.63;2.43;;;;;-1.10;94620.00;;;;5114853;28;20190;-57
2023/12/02 04:36:43;;;;;;;1.77;1.60;;;;;-1.10;94611.00;;;;5113641;28;20198;-57
2023/12/02 04:39:11;;;;;;;1.83;1.63;;;;;-1.10;94619.00;;;;5114933;28;20598;-57
2023/12/02 04:41:40;;;;;;;1.20;1.10;;;;;-1.20;94612.00;;;;5115036;28;20784;-57
2023/12/02 04:44:07;;;;;;;1.60;1.50;;;;;-1.10;94609.00;;;;5114946;28;20685;-57
2023/12/02 04:46:35;;;;;;;1.13;1.13;;;;;-1.10;94627.00;;;;5115340;28;20194;-57
2023/12/02 04:49:03;;;;;;;1.93;1.83;;;;;-1.20;94626.00;;;;5115243;28;20194;-57
2023/12/02 04:51:30;;;;;;;1.13;1.07;;;;;-1.20;94633.00;;;;5114940;28;20206;-57
2023/12/02 04:53:58;;;;;;;1.37;1.30;;;;;-1.20;94640.00;;;;5114391;28;20194;-58
2023/12/02 04:56:25;;;;;;;3.40;2.20;;;;;-1.30;94650.00;;;;5114230;27;20218;-57
2023/12/02 04:58:54;;;;;;;1.83;1.73;;;;;-1.20;94639.00;;;;5114598;28;20190;-58
2023/12/02 05:01:21;;;;;;;2.07;1.83;;;;;-1.20;94641.00;;;;5113948;28;20201;-58
2023/12/02 05:03:49;;;;;;;1.47;1.40;;;;;-1.10;94650.00;;;;5114775;28;20247;-57
2023/12/02 05:06:17;;;;;;;2.10;1.87;;;;;-1.10;94655.00;;;;5114422;28;20190;-57
2023/12/02 05:08:45;;;;;;;3.00;2.00;;;;;-1.10;94652.00;;;;5114133;28;20236;-57
2023/12/02 05:11:18;;;;;;;3.17;2.87;;;;;-1.10;94645.00;;;;5114808;28;20224;-57
2023/12/02 05:13:46;;;;;;;2.37;1.90;;;;;-1.10;94663.00;;;;5114555;28;20217;-57
2023/12/02 05:16:14;;;;;;;2.13;2.03;;;;;-1.20;94652.00;;;;5114632;28;20597;-57
2023/12/02 05:18:42;;;;;;;1.93;1.80;;;;;-1.20;94666.00;;;;5114317;28;20198;-57
2023/12/02 05:21:10;;;;;;;2.37;2.17;;;;;-1.30;94665.00;;;;5113904;28;20198;-57
2023/12/02 05:23:38;;;;;;;1.63;1.53;;;;;-1.30;94668.00;;;;5113850;28;20553;-57
2023/12/02 05:26:06;;;;;;;2.53;2.33;;;;;-1.30;94669.00;;;;5113880;28;20200;-59
2023/12/02 05:28:34;;;;;;;1.80;1.70;;;;;-1.20;94664.00;;;;5113816;28;20370;-58
2023/12/02 05:31:01;;;;;;;2.13;2.03;;;;;-1.20;94661.00;;;;5114452;28;20197;-57
2023/12/02 05:33:30;;;;;;;1.97;1.87;;;;;-1.30;94661.00;;;;5114060;28;20606;-59
2023/12/02 05:35:58;;;;;;;3.07;2.40;;;;;-1.40;94672.00;;;;5113697;28;20221;-56
2023/12/02 05:38:25;;;;;;;3.67;2.27;;;;;-1.40;94682.00;;;;5113689;28;20672;-58
2023/12/02 05:40:53;;;;;;;2.77;2.57;;;;;-1.30;94688.00;;;;5113464;28;20194;-57
2023/12/02 05:43:20;;;;;;;3.17;2.97;;;;;-1.40;94695.00;;;;5113538;28;20227;-57
2023/12/02 05:45:48;;;;;;;4.53;3.13;;;;;-1.30;94698.00;;;;5113765;28;20197;-59
2023/12/02 05:48:15;;;;;;;1.53;1.43;;;;;-1.20;94703.00;;;;5113795;28;20193;-57
2023/12/02 05:50:44;;;;;;;2.63;2.40;;;;;-1.20;94698.00;;;;5112155;28;20205;-58
2023/12/02 05:53:11;;;;;;;2.60;2.40;;;;;-1.30;94711.00;;;;5112305;28;20577;-58
2023/12/02 05:55:39;;;;;;;2.70;2.50;;;;;-1.30;94707.00;;;;5113392;28;20578;-58
2023/12/02 05:58:06;;;;;;;10.80;2.40;;;;;-1.20;94710.00;;;;5113385;28;20191;-58
2023/12/02 06:00:35;;;;;;;2.10;1.97;;;;;-1.20;94718.00;;;;5113637;28;20198;-57
2023/12/02 06:03:03;;;;;;;2.00;1.90;;;;;-1.40;94728.00;;;;5113615;28;20265;-57
2023/12/02 06:05:31;;;;;;;2.30;2.07;;;;;-1.30;94734.00;;;;5113521;28;20213;-58
2023/12/02 06:08:00;;;;;;;5.60;2.10;;;;;-1.40;94729.00;;;;5113933;28;20193;-58
2023/12/02 06:10:27;;;;;;;2.37;2.17;;;;;-1.40;94734.00;;;;5113324;28;20189;-58
2023/12/02 06:12:54;;;;;;;2.40;2.07;;;;;-1.40;94732.00;;;;5113178;28;20676;-58
2023/12/02 06:15:23;;;;;;;3.77;3.43;;;;;-1.40;94740.00;;;;5113407;28;20272;-59
2023/12/02 06:17:56;;;;;;;3.60;2.47;;;;;-1.40;94742.00;;;;5113196;28;20193;-58
2023/12/02 06:20:24;;;;;;;2.57;2.37;;;;;-1.40;94731.00;;;;5113464;28;20224;-58
2023/12/02 06:22:52;;;;;;;1.77;1.67;;;;;-1.40;94667.00;;;;5113201;28;20218;-57
2023/12/02 06:25:21;;;;;;;1.40;1.37;;;;;-1.40;94744.00;;;;5116834;28;20711;-57
2023/12/02 06:27:48;;;;;;;3.10;2.80;;;;;-1.50;94742.00;;;;5117335;28;20194;-57
2023/12/02 06:30:18;;;;;;;3.27;2.17;;;;;-1.50;94734.00;;;;5117249;28;20288;-59
2023/12/02 06:32:46;;;;;;;3.17;2.97;;;;;-1.50;94747.00;;;;5117436;28;20572;-58
2023/12/02 06:35:14;;;;;;;2.40;2.20;;;;;-1.50;94740.00;;;;5117080;28;20210;-58
2023/12/02 06:37:41;;;;;;;1.90;1.80;;;;;-1.50;94758.00;;;;5117081;28;20212;-59
2023/12/02 06:40:10;;;;;;;2.07;1.97;;;;;-1.40;94754.00;;;;5116966;28;20649;-58
2023/12/02 06:42:38;;;;;;;2.17;2.07;;;;;-1.50;94754.00;;;;5116779;28;20229;-58
2023/12/02 06:45:07;;;;;;;3.10;2.83;;;;;-1.50;94762.00;;;;5116924;28;20193;-58
2023/12/02 06:47:34;;;;;;;5.27;1.90;;;;;-1.70;94773.00;;;;5116650;28;20198;-58
2023/12/02 06:50:03;;;;;;;2.50;2.30;;;;;-1.70;94784.00;;;;5115404;28;20200;-57
2023/12/02 06:52:30;;;;;;;1.97;1.87;;;;;-1.70;94781.00;;;;5116822;28;20221;-57
2023/12/02 06:54:58;;;;;;;2.73;2.53;;;;;-1.70;94782.00;;;;5116525;28;20198;-58
2023/12/02 06:57:25;;;;;;;1.90;1.80;;;;;-1.70;94787.00;;;;5116530;28;20182;-58
2023/12/02 06:59:55;;;;;;;5.50;3.17;;;;;-1.70;94792.00;;;;5115153;28;20198;-59
2023/12/02 07:02:22;;;;;;;3.03;2.73;;;;;-1.80;94802.00;;;;5117371;28;20224;-58
2023/12/02 07:04:50;;;;;;;2.87;2.20;;;;;-1.70;94802.00;;;;5118008;28;20182;-58
2023/12/02 07:07:18;;;;;;;2.07;1.97;;;;;-1.80;94793.00;;;;5117033;28;20188;-57
2023/12/02 07:09:45;;;;;;;3.20;1.80;;;;;-2.00;94805.00;;;;5116464;28;20192;-56
2023/12/02 07:12:13;;;;;;;1.43;1.37;;;;;-2.10;94812.00;;;;5114979;28;20688;-58
2023/12/02 07:14:40;;;;;;;2.17;2.07;;;;;-1.90;94816.00;;;;5115043;28;20205;-57
2023/12/02 07:17:09;;;;;;;3.03;2.77;;;;;-1.90;94807.00;;;;5116487;28;20568;-58
2023/12/02 07:19:36;;;;;;;2.10;1.97;;;;;-2.10;94809.00;;;;5116453;28;20524;-58
2023/12/02 07:22:04;;;;;;;1.20;1.20;;;;;-2.10;94815.00;;;;5116187;28;20574;-59
2023/12/02 07:24:32;;;;;;;5.50;2.90;;;;;-2.00;94826.00;;;;5116019;27;20216;-58
2023/12/02 07:26:59;;;;;;;1.70;1.60;;;;;-2.20;94822.00;;;;5116214;28;20594;-58
2023/12/02 07:29:27;;;;;;;1.20;1.20;;;;;-2.10;94816.00;;;;5116043;28;20190;-58
2023/12/02 07:31:54;;;;;;;2.23;1.90;;;;;-2.30;94825.00;;;;5115971;28;20298;-58
2023/12/02 07:34:23;;;;;;;1.43;1.40;;;;;-2.20;94828.00;;;;5115595;28;20199;-58
2023/12/02 07:36:50;;;;;;;1.90;1.80;;;;;-2.10;94829.00;;;;5115192;28;20216;-60
2023/12/02 07:39:18;;;;;;;3.27;1.97;;;;;-2.00;94841.00;;;;5116158;28;20300;-58
2023/12/02 07:41:45;;;;;;;1.73;1.60;;;;;-2.10;94852.00;;;;5115577;28;20590;-57
2023/12/02 07:44:17;;;;;;;1.33;1.27;;;;;-2.20;94857.00;;;;5115699;28;20193;-58
2023/12/02 07:46:44;;;;;;;2.57;2.37;;;;;-2.30;94863.00;;;;5115608;28;20188;-57
2023/12/02 07:49:11;;;;;;;1.73;1.63;;;;;-2.50;94874.00;;;;5115601;28;20200;-57
2023/12/02 07:51:40;;;;;;;2.17;2.00;;;;;-2.40;94872.00;;;;5115396;28;20311;-57
2023/12/02 07:54:07;;;;;;;1.63;1.53;;;;;-2.50;94889.00;;;;5115602;28;20188;-58
2023/12/02 07:56:36;;;;;;;1.67;1.57;;;;;-2.50;94883.00;;;;5115414;28;20225;-57
2023/12/02 07:59:04;;;;;;;2.03;1.93;;;;;-2.50;94891.00;;;;5115722;28;20221;-57
2023/12/02 08:01:32;;;;;;;1.90;1.80;;;;;-2.50;94892.00;;;;5115355;28;20227;-57
2023/12/02 08:04:02;;;;;;;2.07;1.57;;;;;-2.70;94901.00;;;;5115485;28;20193;-57
2023/12/02 08:06:29;;;;;;;1.70;1.60;;;;;-2.60;94901.00;;;;5115797;28;20177;-57
2023/12/02 08:08:58;;;;;;;1.10;1.10;;;;;-2.60;94898.00;;;;5115305;28;20200;-57
2023/12/02 08:11:26;;;;;;;2.37;2.17;;;;;-2.60;94903.00;;;;5115357;28;20200;-57
2023/12/02 08:14:02;;;;;;;1.40;1.30;;;;;-2.60;94899.00;;;;5115342;28;20192;-57
2023/12/02 08:16:30;;;;;;;2.23;2.07;;;;;-2.50;94895.00;;;;5115414;28;20210;-57
2023/12/02 08:18:57;;;;;;;2.13;2.03;;;;;-2.50;94910.00;;;;5115062;28;20683;-57
2023/12/02 08:21:25;;;;;;;2.40;2.20;;;;;-2.40;94905.00;;;;5115086;28;20188;-57
2023/12/02 08:23:52;;;;;;;4.27;2.13;;;;;-2.40;94900.00;;;;5115234;28;20579;-58
2023/12/02 08:26:21;;;;;;;2.87;2.50;;;;;-2.30;94914.00;;;;5114900;28;20210;-59
2023/12/02 08:28:49;;;;;;;2.57;2.37;;;;;-2.40;94921.00;;;;5114865;28;20557;-59
2023/12/02 08:31:16;;;;;;;4.30;3.30;;;;;-2.40;94915.00;;;;5113374;28;20664;-58
2023/12/02 08:33:43;;;;;;;3.30;1.77;;;;;-2.30;94920.00;;;;5114921;28;20197;-58
2023/12/02 08:36:11;;;;;;;1.37;1.37;;;;;-2.10;94925.00;;;;5114994;28;20335;-58
2023/12/02 08:38:39;;;;;;;1.30;1.30;;;;;-2.20;94924.00;;;;5115212;28;20193;-58
2023/12/02 08:41:07;;;;;;;1.80;1.70;;;;;-2.20;94920.00;;;;5115285;28;20265;-58
2023/12/02 08:43:36;;;;;;;2.10;1.97;;;;;-2.10;94935.00;;;;5114832;28;20233;-58
2023/12/02 08:46:03;;;;;;;3.30;2.23;;;;;-2.00;94945.00;;;;5112854;28;20287;-58
2023/12/02 08:48:31;;;;;;;2.70;2.57;;;;;-2.00;94940.00;;;;5114494;28;20198;-58
2023/12/02 08:50:58;;;;;;;2.77;2.57;;;;;-2.00;94945.00;;;;5114540;28;20196;-60
2023/12/02 08:53:26;;;;;;;1.63;1.53;;;;;-2.00;94953.00;;;;5114867;28;20614;-63
2023/12/02 08:55:54;;;;;;;1.73;1.63;;;;;-1.90;94962.00;;;;5114405;28;20295;-56
2023/12/02 08:58:21;;;;;;;4.87;2.60;;;;;-1.90;94969.00;;;;5113156;28;20197;-57
2023/12/02 09:00:51;;;;;;;2.03;1.93;;;;;-2.10;94969.00;;;;5114204;28;20201;-58
2023/12/02 09:03:19;;;;;;;4.27;2.67;;;;;-2.00;94958.00;;;;5114056;28;20287;-58
2023/12/02 09:05:46;;;;;;;2.83;2.63;;;;;-2.00;94969.00;;;;5114103;28;20205;-58
2023/12/02 09:08:13;;;;;;;4.07;2.80;;;;;-2.00;94980.00;;;;5114439;28;20545;-57
2023/12/02 09:10:41;;;;;;;2.00;1.90;;;;;-1.90;94979.00;;;;5114027;28;20688;-59
2023/12/02 09:13:24;;;;;;;3.30;3.07;;;;;-1.80;94985.00;;;;5113962;28;20569;-57
2023/12/02 09:15:53;;;;;;;2.13;1.97;;;;;-2.00;94992.00;;;;5114328;28;20178;-57
2023/12/02 09:18:30;;;;;;;2.03;1.87;;;;;-2.00;95002.00;;;;5112681;28;20574;-57
2023/12/02 09:20:57;;;;;;;1.73;1.63;;;;;-2.00;95010.00;;;;5114219;28;20204;-57
2023/12/02 09:23:24;;;;;;;1.73;1.63;;;;;-2.00;95000.00;;;;5114105;28;20213;-56
2023/12/02 09:25:53;;;;;;;2.37;2.17;;;;;-1.90;95013.00;;;;5114343;28;20190;-57
2023/12/02 09:28:26;;;;;;;2.87;2.67;;;;;-1.90;95022.00;;;;5114076;28;20190;-57
2023/12/02 09:31:00;;;;;;;2.40;2.20;;;;;-2.00;95015.00;;;;5113088;28;20581;-57
2023/12/02 09:33:29;;;;;;;2.90;2.33;;;;;-1.90;95031.00;;;;5113767;28;20219;-57
2023/12/02 09:35:58;;;;;;;2.83;2.10;;;;;-1.90;95036.00;;;;5113938;28;20190;-57
2023/12/02 09:38:28;;;;;;;3.03;2.30;;;;;-1.90;95035.00;;;;5114281;28;20201;-56
2023/12/02 09:41:24;;;;;;;2.60;2.07;;;;;-1.90;95036.00;;;;5112591;28;20619;-57
2023/12/02 09:44:06;;;;;;;2.53;2.43;;;;;-1.90;95037.00;;;;5112664;28;20694;-57
2023/12/02 09:46:42;;;;;;;2.40;2.20;;;;;-1.90;95053.00;;;;5113800;28;20598;-57
2023/12/02 09:49:42;;;;;;;5.40;3.27;;;;;-1.90;95053.00;;;;5114048;28;20181;-57
2023/12/02 09:52:25;;;;;;;2.17;2.07;;;;;-1.90;95064.00;;;;5113632;28;20220;-58
2023/12/02 09:54:59;;;;;;;2.10;1.97;;;;;-2.10;95060.00;;;;5113760;28;20200;-57
2023/12/02 09:57:34;;;;;;;3.93;2.70;;;;;-2.20;95042.00;;;;5114163;28;20519;-57
2023/12/02 10:00:09;;;;;;;2.20;2.10;;;;;-2.10;95055.00;;;;5117176;28;20192;-57
2023/12/02 10:02:52;;;;;;;3.23;3.00;;;;;-1.60;95059.00;;;;5118048;28;20212;-57
2023/12/02 10:05:20;;;;;;;2.70;2.50;;;;;-1.60;95050.00;;;;5117670;28;20184;-57
2023/12/02 10:07:59;;;;;;;1.83;1.73;;;;;-1.80;95053.00;;;;5118059;28;20656;-57
2023/12/02 10:10:32;;;;;;;3.80;3.40;;;;;-2.00;95052.00;;;;5117867;28;20235;-58
2023/12/02 10:13:11;;;;;;;2.77;2.57;;;;;-2.00;95064.00;;;;5117720;28;20720;-58
2023/12/02 10:15:40;;;;;;;2.10;1.90;;;;;-2.10;95060.00;;;;5117726;28;20238;-58
2023/12/02 10:18:13;;;;;;;2.27;2.07;;;;;-2.20;95057.00;;;;5117373;28;20216;-59
2023/12/02 10:20:43;;;;;;;2.30;2.20;;;;;-2.10;95062.00;;;;5117464;28;20181;-58
2023/12/02 10:23:20;;;;;;;2.40;2.20;;;;;-2.20;95068.00;;;;5117365;28;20210;-58
2023/12/02 10:26:00;;;;;;;2.90;2.30;;;;;-2.20;95068.00;;;;5117484;28;20184;-58
2023/12/02 10:28:38;;;;;;;2.40;2.20;;;;;-2.10;95073.00;;;;5117774;28;20188;-58
2023/12/02 10:31:07;;;;;;;3.10;2.73;;;;;-2.00;95060.00;;;;5117779;28;20178;-58
2023/12/02 10:33:46;;;;;;;2.57;2.37;;;;;-2.20;95070.00;;;;5117198;28;20273;-58
2023/12/02 10:36:16;;;;;;;2.27;2.17;;;;;-2.10;95076.00;;;;5117334;27;20205;-58
2023/12/02 10:38:55;;;;;;;2.00;1.90;;;;;-1.90;95070.00;;;;5117159;28;20182;-58
2023/12/02 10:41:32;;;;;;;3.07;1.83;;;;;-2.10;95077.00;;;;5117063;28;20533;-58
2023/12/02 10:44:07;;;;;;;1.50;1.50;;;;;-2.00;95071.00;;;;5118272;28;20192;-58
2023/12/02 10:46:36;;;;;;;1.63;1.53;;;;;-2.20;95076.00;;;;5117612;28;20177;-59
2023/12/02 10:49:05;;;;;;;1.47;1.37;;;;;-2.20;95080.00;;;;5116804;28;20190;-59
2023/12/02 10:51:39;;;;;;;1.93;1.80;;;;;-2.20;95081.00;;;;5117204;28;20209;-59
2023/12/02 10:54:08;;;;;;;2.17;2.07;;;;;-2.10;95082.00;;;;5117008;28;20632;-58
2023/12/02 10:56:39;;;;;;;1.27;1.27;;;;;-1.90;95080.00;;;;5116500;28;20273;-58
2023/12/02 10:59:07;;;;;;;2.13;2.03;;;;;-1.80;95076.00;;;;5116571;28;20197;-58
2023/12/02 11:01:40;;;;;;;1.60;1.57;;;;;-1.70;95075.00;;;;5116381;28;20224;-58
2023/12/02 11:04:24;;;;;;;1.37;1.37;;;;;-1.70;95084.00;;;;5116492;28;20618;-58
2023/12/02 11:06:54;;;;;;;2.33;1.87;;;;;-1.70;95099.00;;;;5116584;28;20177;-58
2023/12/02 11:09:31;;;;;;;1.60;1.50;;;;;-1.60;95104.00;;;;5115731;28;20189;-58
2023/12/02 11:12:04;;;;;;;1.10;1.10;;;;;-1.90;95104.00;;;;5116226;28;20236;-58
2023/12/02 11:14:40;;;;;;;1.90;1.70;;;;;-1.90;95117.00;;;;5116513;28;20184;-58
2023/12/02 11:17:16;;;;;;;1.70;1.60;;;;;-1.70;95113.00;;;;5116270;28;20204;-58
2023/12/02 11:20:06;;;;;;;6.10;2.07;;;;;-1.80;95124.00;;;;5116711;28;20189;-57
2023/12/02 11:22:50;;;;;;;1.37;1.20;;;;;-1.80;95115.00;;;;5116082;28;20233;-57
2023/12/02 11:25:34;;;;;;;1.63;1.43;;;;;-2.20;95124.00;;;;5116604;28;20204;-57
2023/12/02 11:28:09;;;;;;;2.77;1.77;;;;;-2.20;95124.00;;;;5116128;28;20187;-57
2023/12/02 11:30:53;;;;;;;1.40;1.00;;;;;-2.10;95127.00;;;;5115881;28;20184;-57
2023/12/02 11:33:31;;;;;;;1.87;1.77;;;;;-2.10;95135.00;;;;5116361;27;20213;-57
2023/12/02 11:36:09;;;;;;;1.60;1.50;;;;;-2.20;95138.00;;;;5116197;28;20180;-59
2023/12/02 11:38:47;;;;;;;1.70;1.60;;;;;-2.20;95139.00;;;;5115817;28;20312;-57
2023/12/02 11:41:24;;;;;;;1.30;1.30;;;;;-2.10;95143.00;;;;5114272;28;20218;-57
2023/12/02 11:44:07;;;;;;;5.83;1.37;;;;;-2.40;95153.00;;;;5115807;28;20561;-57
2023/12/02 11:46:46;;;;;;;2.37;1.27;;;;;-2.40;95152.00;;;;5115973;28;20208;-57
2023/12/02 11:49:27;;;;;;;1.07;1.07;;;;;-2.40;95156.00;;;;5116164;28;20190;-57
2023/12/02 11:52:06;;;;;;;1.13;1.13;;;;;-2.40;95159.00;;;;5115740;28;20216;-57
2023/12/02 11:54:49;;;;;;;1.57;1.50;;;;;-2.40;95162.00;;;;5116122;28;20179;-57
2023/12/02 11:57:30;;;;;;;2.47;2.13;;;;;-2.40;95162.00;;;;5114238;28;20289;-57
2023/12/02 12:00:09;;;;;;;0.93;0.93;;;;;-2.40;95168.00;;;;5116075;28;20189;-57
2023/12/02 12:03:04;;;;;;;2.20;1.53;;;;;-2.30;95177.00;;;;5115376;28;20213;-57
2023/12/02 12:05:41;;;;;;;1.77;1.67;;;;;-2.30;95185.00;;;;5115882;28;20627;-56
2023/12/02 12:08:18;;;;;;;1.87;1.77;;;;;-2.10;95185.00;;;;5115541;28;20176;-57
2023/12/02 12:10:47;;;;;;;1.50;1.40;;;;;-2.20;95185.00;;;;5115738;28;20190;-57
2023/12/02 12:13:20;;;;;;;1.87;1.57;;;;;-2.30;95197.00;;;;5115414;28;20255;-57
2023/12/02 12:15:48;;;;;;;1.73;1.63;;;;;-2.40;95195.00;;;;5115329;28;20179;-57
2023/12/02 12:18:17;;;;;;;1.93;1.83;;;;;-2.40;95206.00;;;;5114742;28;20622;-57
2023/12/02 12:20:46;;;;;;;1.80;1.70;;;;;-2.30;95211.00;;;;5114786;28;20258;-57
2023/12/02 12:23:16;;;;;;;1.27;1.27;;;;;-2.30;95211.00;;;;5114871;28;20288;-57
2023/12/02 12:25:46;;;;;;;1.73;1.63;;;;;-2.20;95208.00;;;;5114910;28;20190;-57
2023/12/02 12:28:14;;;;;;;2.10;1.90;;;;;-2.00;95218.00;;;;5115235;28;20185;-57
2023/12/02 12:30:46;;;;;;;3.00;1.87;;;;;-2.00;95227.00;;;;5114836;28;20190;-57